createdAt,value
2023-01-13T00:00:13.845Z,0.00
2023-01-13T00:01:13.783Z,0.00
2023-01-13T00:02:13.809Z,0.00
2023-01-13T00:03:13.751Z,0.00
2023-01-13T00:04:13.759Z,0.00
2023-01-13T00:05:13.738Z,0.00
2023-01-13T00:06:13.760Z,0.00
2023-01-13T00:07:13.719Z,0.00
2023-01-13T00:08:13.721Z,0.00
2023-01-13T00:09:13.714Z,0.00
2023-01-13T00:10:13.687Z,0.00
2023-01-13T00:11:13.673Z,0.00
2023-01-13T00:12:13.665Z,0.00
2023-01-13T00:13:13.690Z,0.00
2023-01-13T00:14:13.675Z,0.00
2023-01-13T00:15:13.666Z,0.00
2023-01-13T00:16:13.638Z,0.00
2023-01-13T00:17:13.621Z,0.00
2023-01-13T00:18:13.615Z,0.00
2023-01-13T00:19:13.590Z,0.00
2023-01-13T00:20:13.616Z,0.00
2023-01-13T00:21:13.601Z,0.00
2023-01-13T00:22:13.565Z,0.00
2023-01-13T00:23:13.570Z,0.00
2023-01-13T00:24:13.559Z,0.00
2023-01-13T00:25:13.570Z,0.00
2023-01-13T00:26:13.523Z,0.00
2023-01-13T00:27:14.556Z,0.00
2023-01-13T00:28:13.523Z,0.00
2023-01-13T00:29:13.499Z,0.00
2023-01-13T00:30:13.527Z,0.00
2023-01-13T00:31:13.582Z,0.00
2023-01-13T00:32:13.468Z,0.00
2023-01-13T00:33:13.459Z,0.00
2023-01-13T00:34:13.487Z,0.00
2023-01-13T00:35:14.454Z,0.00
2023-01-13T00:36:13.444Z,0.00
2023-01-13T00:37:13.419Z,0.00
2023-01-13T00:38:14.425Z,0.00
2023-01-13T00:39:13.402Z,0.00
2023-01-13T00:40:13.393Z,0.00
2023-01-13T00:41:13.387Z,0.00
2023-01-13T00:42:13.369Z,0.00
2023-01-13T00:43:13.382Z,0.00
2023-01-13T00:44:13.349Z,0.00
2023-01-13T00:45:13.364Z,0.00
2023-01-13T00:46:13.409Z,0.00
2023-01-13T00:47:13.357Z,0.00
2023-01-13T00:48:13.327Z,0.00
2023-01-13T00:49:13.305Z,0.00
2023-01-13T00:50:13.318Z,0.00
2023-01-13T00:51:13.333Z,0.00
2023-01-13T00:52:13.279Z,0.00
2023-01-13T00:53:13.259Z,0.00
2023-01-13T00:54:13.275Z,0.00
2023-01-13T00:55:13.248Z,0.00
2023-01-13T00:56:13.255Z,0.00
2023-01-13T00:57:13.225Z,0.00
2023-01-13T00:58:13.219Z,0.00
2023-01-13T00:59:13.197Z,0.00
2023-01-13T01:00:13.210Z,0.00
2023-01-13T01:01:13.346Z,0.00
2023-01-13T01:02:13.258Z,0.00
2023-01-13T01:03:13.159Z,0.00
2023-01-13T01:04:14.157Z,0.00
2023-01-13T01:05:13.179Z,0.00
2023-01-13T01:06:13.147Z,0.00
2023-01-13T01:07:13.134Z,0.00
2023-01-13T01:08:13.152Z,0.00
2023-01-13T01:09:13.109Z,0.00
2023-01-13T01:10:13.102Z,0.00
2023-01-13T01:11:13.089Z,0.00
2023-01-13T01:12:13.095Z,0.00
2023-01-13T01:13:13.082Z,0.00
2023-01-13T01:14:13.073Z,0.00
2023-01-13T01:15:13.068Z,0.00
2023-01-13T01:16:13.243Z,0.00
2023-01-13T01:17:13.050Z,0.00
2023-01-13T01:18:13.035Z,0.00
2023-01-13T01:19:13.036Z,0.00
2023-01-13T01:20:13.000Z,0.00
2023-01-13T01:21:12.993Z,0.00
2023-01-13T01:22:13.001Z,0.00
2023-01-13T01:23:13.002Z,0.00
2023-01-13T01:24:12.988Z,0.00
2023-01-13T01:25:12.951Z,0.00
2023-01-13T01:26:12.944Z,0.00
2023-01-13T01:27:12.965Z,0.00
2023-01-13T01:28:12.936Z,0.00
2023-01-13T01:29:13.918Z,0.00
2023-01-13T01:30:12.913Z,0.00
2023-01-13T01:31:12.961Z,0.00
2023-01-13T01:32:12.901Z,0.00
2023-01-13T01:33:12.877Z,0.00
2023-01-13T01:34:12.898Z,0.00
2023-01-13T01:35:12.889Z,0.00
2023-01-13T01:36:12.864Z,0.00
2023-01-13T01:37:44.755Z,0.00
2023-01-13T01:38:12.848Z,0.00
2023-01-13T01:39:12.859Z,0.00
2023-01-13T01:40:12.866Z,0.00
2023-01-13T01:41:12.808Z,0.00
2023-01-13T01:42:12.804Z,0.00
2023-01-13T01:43:12.800Z,0.00
2023-01-13T01:44:12.813Z,0.00
2023-01-13T01:45:12.772Z,0.00
2023-01-13T01:46:12.772Z,0.00
2023-01-13T01:47:12.784Z,0.00
2023-01-13T01:48:12.743Z,0.00
2023-01-13T01:49:12.764Z,0.00
2023-01-13T01:50:12.714Z,0.00
2023-01-13T01:51:12.735Z,0.00
2023-01-13T01:52:12.718Z,0.00
2023-01-13T01:53:12.694Z,0.00
2023-01-13T01:54:12.739Z,0.00
2023-01-13T01:55:12.686Z,0.00
2023-01-13T01:56:12.675Z,0.00
2023-01-13T01:57:12.669Z,0.00
2023-01-13T01:58:12.665Z,0.00
2023-01-13T01:59:12.659Z,0.00
2023-01-13T02:00:12.632Z,0.00
2023-01-13T02:01:12.716Z,0.00
2023-01-13T02:02:12.794Z,0.00
2023-01-13T02:03:12.594Z,0.00
2023-01-13T02:04:12.616Z,0.00
2023-01-13T02:05:12.573Z,0.00
2023-01-13T02:06:12.565Z,0.00
2023-01-13T02:07:12.566Z,0.00
2023-01-13T02:08:12.594Z,0.00
2023-01-13T02:09:12.541Z,0.00
2023-01-13T02:10:12.536Z,0.00
2023-01-13T02:11:12.565Z,0.00
2023-01-13T02:12:12.514Z,0.00
2023-01-13T02:13:12.516Z,0.00
2023-01-13T02:14:12.497Z,0.00
2023-01-13T02:15:12.481Z,0.00
2023-01-13T02:16:12.567Z,0.00
2023-01-13T02:17:12.489Z,0.00
2023-01-13T02:18:12.462Z,0.00
2023-01-13T02:19:12.460Z,0.00
2023-01-13T02:20:12.462Z,0.00
2023-01-13T02:21:12.468Z,0.00
2023-01-13T02:22:12.427Z,0.00
2023-01-13T02:23:12.395Z,0.00
2023-01-13T02:24:13.392Z,0.00
2023-01-13T02:25:12.394Z,0.00
2023-01-13T02:26:12.395Z,0.00
2023-01-13T02:27:12.413Z,0.00
2023-01-13T02:28:12.363Z,0.00
2023-01-13T02:29:12.359Z,0.00
2023-01-13T02:30:12.351Z,0.00
2023-01-13T02:31:12.448Z,0.00
2023-01-13T02:32:12.357Z,0.00
2023-01-13T02:33:12.317Z,0.00
2023-01-13T02:34:12.303Z,0.00
2023-01-13T02:35:12.319Z,0.00
2023-01-13T02:36:12.271Z,0.00
2023-01-13T02:37:12.262Z,0.00
2023-01-13T02:38:12.253Z,0.00
2023-01-13T02:39:12.286Z,0.00
2023-01-13T02:40:12.236Z,0.00
2023-01-13T02:41:12.221Z,0.00
2023-01-13T02:42:12.219Z,0.00
2023-01-13T02:43:12.232Z,0.00
2023-01-13T02:44:12.197Z,0.00
2023-01-13T02:45:12.184Z,0.00
2023-01-13T02:46:12.185Z,0.00
2023-01-13T02:47:12.179Z,0.00
2023-01-13T02:48:12.190Z,0.00
2023-01-13T02:49:12.144Z,0.00
2023-01-13T02:50:12.130Z,0.00
2023-01-13T02:51:12.130Z,0.00
2023-01-13T02:52:12.177Z,0.00
2023-01-13T02:53:12.102Z,0.00
2023-01-13T02:54:12.089Z,0.00
2023-01-13T02:55:12.089Z,0.00
2023-01-13T02:56:12.082Z,0.00
2023-01-13T02:57:12.089Z,0.00
2023-01-13T02:58:12.046Z,0.00
2023-01-13T02:59:12.058Z,0.00
2023-01-13T03:00:12.044Z,0.00
2023-01-13T03:01:12.141Z,0.00
2023-01-13T03:02:12.156Z,0.00
2023-01-13T03:03:12.020Z,0.00
2023-01-13T03:04:12.017Z,0.00
2023-01-13T03:05:12.007Z,0.00
2023-01-13T03:06:12.006Z,0.00
2023-01-13T03:07:11.979Z,0.00
2023-01-13T03:08:11.978Z,0.00
2023-01-13T03:09:11.965Z,0.00
2023-01-13T03:10:11.946Z,0.00
2023-01-13T03:11:11.990Z,0.00
2023-01-13T03:12:11.938Z,0.00
2023-01-13T03:13:11.924Z,0.00
2023-01-13T03:14:11.904Z,0.00
2023-01-13T03:15:11.907Z,0.00
2023-01-13T03:16:11.910Z,0.00
2023-01-13T03:17:11.907Z,0.00
2023-01-13T03:18:11.876Z,0.00
2023-01-13T03:19:11.859Z,0.00
2023-01-13T03:20:11.862Z,0.00
2023-01-13T03:21:11.851Z,0.00
2023-01-13T03:22:11.870Z,0.00
2023-01-13T03:23:11.830Z,0.00
2023-01-13T03:24:11.847Z,0.00
2023-01-13T03:25:11.823Z,0.00
2023-01-13T03:26:11.798Z,0.00
2023-01-13T03:27:11.837Z,0.00
2023-01-13T03:28:11.782Z,0.00
2023-01-13T03:29:11.771Z,0.00
2023-01-13T03:30:11.779Z,0.00
2023-01-13T03:31:11.769Z,0.00
2023-01-13T03:32:11.759Z,0.00
2023-01-13T03:33:11.722Z,0.00
2023-01-13T03:34:11.751Z,0.00
2023-01-13T03:35:11.708Z,0.00
2023-01-13T03:36:11.710Z,0.00
2023-01-13T03:37:11.695Z,0.00
2023-01-13T03:38:11.681Z,0.00
2023-01-13T03:39:11.667Z,0.00
2023-01-13T03:40:11.662Z,0.00
2023-01-13T03:41:11.686Z,0.00
2023-01-13T03:42:11.639Z,0.00
2023-01-13T03:43:11.644Z,0.00
2023-01-13T03:44:12.609Z,0.00
2023-01-13T03:45:11.615Z,0.00
2023-01-13T03:46:11.634Z,0.00
2023-01-13T03:47:11.679Z,0.00
2023-01-13T03:48:11.611Z,0.00
2023-01-13T03:49:11.606Z,0.00
2023-01-13T03:50:11.592Z,0.00
2023-01-13T03:51:11.565Z,0.00
2023-01-13T03:52:11.604Z,0.00
2023-01-13T03:53:11.613Z,0.00
2023-01-13T03:54:11.595Z,0.00
2023-01-13T03:55:11.584Z,0.00
2023-01-13T03:56:11.583Z,0.00
2023-01-13T03:57:11.540Z,0.00
2023-01-13T03:58:11.541Z,0.00
2023-01-13T03:59:11.542Z,0.00
2023-01-13T04:00:11.556Z,0.00
2023-01-13T04:01:11.651Z,0.00
2023-01-13T04:02:11.634Z,0.00
2023-01-13T04:03:11.527Z,0.00
2023-01-13T04:04:11.487Z,0.00
2023-01-13T04:05:11.431Z,0.00
2023-01-13T04:06:11.491Z,0.00
2023-01-13T04:07:11.434Z,0.00
2023-01-13T04:08:11.411Z,0.00
2023-01-13T04:09:11.421Z,0.00
2023-01-13T04:10:11.399Z,0.00
2023-01-13T04:11:11.439Z,0.00
2023-01-13T04:12:11.400Z,0.00
2023-01-13T04:13:11.365Z,0.00
2023-01-13T04:14:11.351Z,0.00
2023-01-13T04:15:11.397Z,0.00
2023-01-13T04:16:11.401Z,0.00
2023-01-13T04:17:11.301Z,0.00
2023-01-13T04:18:11.338Z,0.00
2023-01-13T04:19:11.326Z,0.00
2023-01-13T04:20:11.368Z,0.00
2023-01-13T04:21:11.284Z,0.00
2023-01-13T04:22:11.260Z,0.00
2023-01-13T04:23:11.304Z,0.00
2023-01-13T04:24:11.275Z,0.00
2023-01-13T04:25:11.276Z,0.00
2023-01-13T04:26:11.309Z,0.00
2023-01-13T04:27:11.250Z,0.00
2023-01-13T04:28:11.193Z,0.00
2023-01-13T04:29:11.221Z,0.00
2023-01-13T04:30:11.199Z,0.00
2023-01-13T04:31:11.374Z,0.00
2023-01-13T04:32:11.168Z,0.00
2023-01-13T04:33:11.199Z,0.00
2023-01-13T04:34:11.137Z,0.00
2023-01-13T04:35:11.161Z,0.00
2023-01-13T04:36:11.176Z,0.00
2023-01-13T04:37:11.144Z,0.00
2023-01-13T04:38:11.153Z,0.00
2023-01-13T04:39:11.127Z,0.00
2023-01-13T04:40:11.121Z,0.00
2023-01-13T04:41:11.121Z,0.00
2023-01-13T04:42:11.086Z,0.00
2023-01-13T04:43:11.068Z,0.00
2023-01-13T04:44:11.040Z,0.00
2023-01-13T04:45:11.090Z,0.00
2023-01-13T04:46:11.053Z,0.00
2023-01-13T04:47:11.058Z,0.00
2023-01-13T04:48:11.054Z,0.00
2023-01-13T04:49:11.012Z,0.00
2023-01-13T04:50:11.023Z,0.00
2023-01-13T04:51:10.996Z,0.00
2023-01-13T04:52:10.963Z,0.00
2023-01-13T04:53:10.985Z,0.00
2023-01-13T04:54:10.954Z,0.00
2023-01-13T04:55:10.942Z,0.00
2023-01-13T04:56:10.954Z,0.00
2023-01-13T04:57:10.916Z,0.00
2023-01-13T04:58:10.943Z,0.00
2023-01-13T04:59:10.923Z,0.00
2023-01-13T05:00:10.893Z,0.00
2023-01-13T05:01:11.014Z,0.00
2023-01-13T05:02:10.905Z,0.00
2023-01-13T05:03:10.888Z,0.00
2023-01-13T05:04:10.852Z,4.00
2023-01-13T05:05:10.914Z,4.00
2023-01-13T05:06:10.854Z,4.00
2023-01-13T05:07:10.823Z,0.00
2023-01-13T05:08:10.838Z,0.00
2023-01-13T05:09:10.816Z,0.00
2023-01-13T05:10:10.813Z,0.00
2023-01-13T05:11:11.780Z,0.00
2023-01-13T05:12:10.795Z,0.00
2023-01-13T05:13:10.756Z,0.00
2023-01-13T05:14:10.758Z,0.00
2023-01-13T05:15:11.763Z,0.00
2023-01-13T05:16:11.499Z,0.00
2023-01-13T05:17:11.731Z,0.00
2023-01-13T05:18:10.739Z,0.00
2023-01-13T05:19:10.731Z,0.00
2023-01-13T05:20:10.664Z,0.00
2023-01-13T05:21:11.688Z,0.00
2023-01-13T05:22:10.650Z,0.00
2023-01-13T05:23:10.706Z,0.00
2023-01-13T05:24:10.696Z,0.00
2023-01-13T05:25:10.665Z,0.00
2023-01-13T05:26:10.650Z,0.00
2023-01-13T05:27:10.624Z,0.00
2023-01-13T05:28:10.639Z,0.00
2023-01-13T05:29:10.644Z,0.00
2023-01-13T05:30:10.601Z,0.00
2023-01-13T05:31:10.645Z,0.00
2023-01-13T05:32:10.609Z,0.00
2023-01-13T05:33:10.641Z,0.00
2023-01-13T05:34:10.586Z,0.00
2023-01-13T05:35:10.585Z,0.00
2023-01-13T05:36:10.543Z,0.00
2023-01-13T05:37:10.574Z,0.00
2023-01-13T05:38:10.533Z,0.00
2023-01-13T05:39:10.541Z,0.00
2023-01-13T05:40:10.507Z,0.00
2023-01-13T05:41:10.487Z,0.00
2023-01-13T05:42:10.535Z,0.00
2023-01-13T05:43:10.526Z,0.00
2023-01-13T05:44:10.452Z,0.00
2023-01-13T05:45:10.461Z,0.00
2023-01-13T05:46:10.497Z,0.00
2023-01-13T05:47:10.433Z,0.00
2023-01-13T05:48:10.487Z,0.00
2023-01-13T05:49:10.428Z,0.00
2023-01-13T05:50:10.429Z,0.00
2023-01-13T05:51:10.393Z,0.00
2023-01-13T05:52:10.411Z,0.00
2023-01-13T05:53:10.403Z,0.00
2023-01-13T05:54:10.420Z,0.00
2023-01-13T05:55:10.414Z,0.00
2023-01-13T05:56:10.407Z,0.00
2023-01-13T05:57:10.348Z,0.00
2023-01-13T05:58:10.352Z,0.00
2023-01-13T05:59:10.332Z,0.00
2023-01-13T06:00:10.366Z,0.00
2023-01-13T06:01:10.343Z,0.00
2023-01-13T06:02:10.274Z,0.00
2023-01-13T06:03:10.313Z,0.00
2023-01-13T06:04:10.329Z,0.00
2023-01-13T06:05:10.289Z,0.00
2023-01-13T06:06:10.288Z,0.00
2023-01-13T06:07:10.269Z,0.00
2023-01-13T06:08:10.259Z,0.00
2023-01-13T06:09:10.220Z,0.00
2023-01-13T06:10:10.230Z,0.00
2023-01-13T06:11:10.240Z,0.00
2023-01-13T06:12:10.187Z,0.00
2023-01-13T06:13:10.173Z,0.00
2023-01-13T06:14:10.200Z,0.00
2023-01-13T06:15:10.211Z,0.00
2023-01-13T06:16:10.225Z,0.00
2023-01-13T06:17:10.122Z,0.00
2023-01-13T06:18:10.115Z,0.00
2023-01-13T06:19:10.130Z,0.00
2023-01-13T06:20:10.179Z,0.00
2023-01-13T06:21:10.131Z,0.00
2023-01-13T06:22:10.094Z,0.00
2023-01-13T06:23:10.115Z,0.00
2023-01-13T06:24:10.079Z,0.00
2023-01-13T06:25:10.056Z,0.00
2023-01-13T06:26:10.135Z,0.00
2023-01-13T06:27:10.075Z,0.00
2023-01-13T06:28:10.041Z,0.00
2023-01-13T06:29:10.085Z,0.00
2023-01-13T06:30:10.049Z,0.00
2023-01-13T06:31:10.090Z,0.00
2023-01-13T06:32:10.001Z,0.00
2023-01-13T06:33:09.988Z,0.00
2023-01-13T06:34:09.943Z,0.00
2023-01-13T06:35:09.989Z,0.00
2023-01-13T06:36:09.952Z,0.00
2023-01-13T06:37:09.933Z,0.00
2023-01-13T06:38:09.888Z,0.00
2023-01-13T06:39:09.955Z,0.00
2023-01-13T06:40:09.885Z,0.00
2023-01-13T06:41:09.880Z,0.00
2023-01-13T06:42:09.884Z,0.00
2023-01-13T06:43:09.856Z,4.00
2023-01-13T06:44:19.421Z,8.00
2023-01-13T06:45:10.855Z,8.00
2023-01-13T06:46:09.831Z,4.00
2023-01-13T06:47:09.813Z,4.00
2023-01-13T06:48:09.795Z,4.00
2023-01-13T06:49:10.794Z,8.00
2023-01-13T06:50:10.819Z,4.00
2023-01-13T06:51:09.774Z,8.00
2023-01-13T06:52:09.764Z,8.00
2023-01-13T06:53:09.775Z,8.00
2023-01-13T06:54:09.749Z,4.00
2023-01-13T06:55:09.801Z,8.00
2023-01-13T06:56:09.723Z,8.00
2023-01-13T06:57:09.719Z,8.00
2023-01-13T06:58:09.728Z,8.00
2023-01-13T06:59:09.706Z,8.00
2023-01-13T07:00:09.706Z,8.00
2023-01-13T07:01:09.863Z,8.00
2023-01-13T07:02:09.751Z,4.00
2023-01-13T07:03:09.669Z,8.00
2023-01-13T07:04:09.648Z,8.00
2023-01-13T07:05:09.648Z,12.00
2023-01-13T07:06:09.633Z,16.00
2023-01-13T07:07:09.642Z,20.00
2023-01-13T07:08:09.633Z,28.00
2023-01-13T07:09:09.587Z,36.00
2023-01-13T07:10:09.582Z,48.00
2023-01-13T07:11:09.579Z,64.00
2023-01-13T07:12:09.567Z,76.00
2023-01-13T07:13:09.594Z,92.00
2023-01-13T07:14:09.560Z,100.00
2023-01-13T07:15:09.542Z,108.00
2023-01-13T07:16:09.583Z,128.00
2023-01-13T07:17:09.521Z,140.00
2023-01-13T07:18:10.529Z,140.00
2023-01-13T07:19:09.538Z,136.00
2023-01-13T07:20:09.522Z,136.00
2023-01-13T07:21:09.522Z,144.00
2023-01-13T07:22:09.488Z,168.00
2023-01-13T07:23:09.475Z,188.00
2023-01-13T07:24:09.483Z,200.00
2023-01-13T07:25:09.449Z,228.00
2023-01-13T07:26:09.454Z,252.00
2023-01-13T07:27:09.438Z,280.00
2023-01-13T07:28:09.412Z,300.00
2023-01-13T07:29:09.442Z,288.00
2023-01-13T07:30:09.396Z,256.00
2023-01-13T07:31:09.400Z,232.00
2023-01-13T07:32:09.380Z,208.00
2023-01-13T07:33:09.379Z,188.00
2023-01-13T07:34:09.402Z,184.00
2023-01-13T07:35:09.364Z,216.00
2023-01-13T07:36:09.340Z,260.00
2023-01-13T07:37:20.457Z,312.00
2023-01-13T07:38:09.307Z,344.00
2023-01-13T07:39:09.301Z,384.00
2023-01-13T07:40:09.310Z,420.00
2023-01-13T07:41:09.311Z,460.00
2023-01-13T07:42:09.283Z,496.00
2023-01-13T07:43:09.271Z,532.00
2023-01-13T07:44:09.247Z,576.00
2023-01-13T07:45:11.487Z,624.00
2023-01-13T07:46:09.290Z,668.00
2023-01-13T07:47:09.305Z,716.00
2023-01-13T07:48:09.233Z,768.00
2023-01-13T07:49:09.205Z,780.00
2023-01-13T07:50:09.193Z,752.00
2023-01-13T07:51:09.259Z,712.00
2023-01-13T07:52:09.227Z,660.00
2023-01-13T07:53:09.164Z,600.00
2023-01-13T07:54:09.223Z,584.00
2023-01-13T07:55:09.156Z,600.00
2023-01-13T07:56:09.144Z,624.00
2023-01-13T07:57:09.170Z,640.00
2023-01-13T07:58:09.148Z,656.00
2023-01-13T07:59:09.119Z,664.00
2023-01-13T08:00:10.484Z,672.00
2023-01-13T08:01:09.291Z,676.00
2023-01-13T08:02:09.236Z,672.00
2023-01-13T08:03:09.140Z,684.00
2023-01-13T08:04:09.057Z,748.00
2023-01-13T08:05:09.060Z,840.00
2023-01-13T08:06:09.097Z,984.00
2023-01-13T08:07:09.059Z,1196.00
2023-01-13T08:08:09.041Z,1492.00
2023-01-13T08:09:09.066Z,1520.00
2023-01-13T08:10:09.106Z,1440.00
2023-01-13T08:11:09.010Z,1280.00
2023-01-13T08:12:09.119Z,1320.00
2023-01-13T08:13:08.996Z,1416.00
2023-01-13T08:14:08.997Z,1472.00
2023-01-13T08:15:09.040Z,1624.00
2023-01-13T08:16:08.950Z,1780.00
2023-01-13T08:17:09.008Z,2152.00
2023-01-13T08:18:08.914Z,3928.00
2023-01-13T08:19:08.985Z,8316.00
2023-01-13T08:20:08.943Z,3144.00
2023-01-13T08:21:09.061Z,3344.00
2023-01-13T08:22:08.903Z,2820.00
2023-01-13T08:23:08.882Z,2928.00
2023-01-13T08:24:08.893Z,2860.00
2023-01-13T08:25:08.884Z,2536.00
2023-01-13T08:26:08.962Z,2828.00
2023-01-13T08:27:08.832Z,2620.00
2023-01-13T08:28:09.945Z,3244.00
2023-01-13T08:29:08.882Z,2636.00
2023-01-13T08:30:08.813Z,2680.00
2023-01-13T08:31:08.861Z,2852.00
2023-01-13T08:32:08.778Z,3076.00
2023-01-13T08:33:08.766Z,3508.00
2023-01-13T08:34:08.849Z,3412.00
2023-01-13T08:35:08.792Z,3128.00
2023-01-13T08:36:08.971Z,2840.00
2023-01-13T08:37:08.766Z,2576.00
2023-01-13T08:38:08.807Z,2616.00
2023-01-13T08:39:08.903Z,2892.00
2023-01-13T08:40:08.776Z,2916.00
2023-01-13T08:41:08.713Z,2876.00
2023-01-13T08:42:08.683Z,2976.00
2023-01-13T08:43:08.824Z,3188.00
2023-01-13T08:44:08.667Z,3328.00
2023-01-13T08:45:08.712Z,3276.00
2023-01-13T08:46:08.759Z,3468.00
2023-01-13T08:47:08.737Z,3360.00
2023-01-13T08:48:08.637Z,3416.00
2023-01-13T08:49:08.628Z,3636.00
2023-01-13T08:50:09.012Z,3664.00
2023-01-13T08:51:08.651Z,3744.00
2023-01-13T08:52:08.592Z,3620.00
2023-01-13T08:53:08.637Z,3536.00
2023-01-13T08:54:08.665Z,3700.00
2023-01-13T08:55:08.560Z,3896.00
2023-01-13T08:56:08.566Z,4656.00
2023-01-13T08:57:08.608Z,4808.00
2023-01-13T08:58:15.677Z,5724.00
2023-01-13T08:59:10.526Z,4972.00
2023-01-13T09:00:08.520Z,4456.00
2023-01-13T09:01:08.730Z,8656.00
2023-01-13T09:02:08.577Z,9248.00
2023-01-13T09:03:08.508Z,8180.00
2023-01-13T09:04:08.547Z,8348.00
2023-01-13T09:05:08.475Z,9724.00
2023-01-13T09:06:08.658Z,5972.00
2023-01-13T09:07:08.493Z,5648.00
2023-01-13T09:08:08.437Z,4544.00
2023-01-13T09:09:08.451Z,4056.00
2023-01-13T09:10:08.420Z,3692.00
2023-01-13T09:11:08.649Z,3480.00
2023-01-13T09:12:08.583Z,3464.00
2023-01-13T09:13:08.382Z,3424.00
2023-01-13T09:14:08.551Z,5508.00
2023-01-13T09:15:08.385Z,4372.00
2023-01-13T09:16:08.440Z,4804.00
2023-01-13T09:17:08.387Z,4732.00
2023-01-13T09:18:08.338Z,5196.00
2023-01-13T09:19:08.334Z,5160.00
2023-01-13T09:20:08.408Z,4732.00
2023-01-13T09:21:08.382Z,4452.00
2023-01-13T09:22:08.362Z,3852.00
2023-01-13T09:23:10.595Z,3784.00
2023-01-13T09:24:09.283Z,3680.00
2023-01-13T09:25:08.326Z,3492.00
2023-01-13T09:26:08.307Z,3240.00
2023-01-13T09:27:08.297Z,2844.00
2023-01-13T09:28:08.709Z,2472.00
2023-01-13T09:29:08.229Z,2364.00
2023-01-13T09:30:08.241Z,2456.00
2023-01-13T09:31:08.223Z,2432.00
2023-01-13T09:32:08.206Z,2360.00
2023-01-13T09:33:08.190Z,2688.00
2023-01-13T09:34:08.194Z,2608.00
2023-01-13T09:35:08.223Z,2360.00
2023-01-13T09:36:08.160Z,2052.00
2023-01-13T09:37:08.158Z,1848.00
2023-01-13T09:38:08.191Z,1660.00
2023-01-13T09:39:08.126Z,1568.00
2023-01-13T09:40:08.132Z,1624.00
2023-01-13T09:41:08.142Z,1740.00
2023-01-13T09:42:08.154Z,1804.00
2023-01-13T09:43:08.166Z,1824.00
2023-01-13T09:44:08.101Z,1928.00
2023-01-13T09:45:08.069Z,2272.00
2023-01-13T09:46:08.117Z,2340.00
2023-01-13T09:47:08.099Z,2304.00
2023-01-13T09:48:08.048Z,2236.00
2023-01-13T09:49:08.056Z,2044.00
2023-01-13T09:50:08.048Z,1848.00
2023-01-13T09:51:08.022Z,1784.00
2023-01-13T09:52:08.071Z,1656.00
2023-01-13T09:53:08.021Z,1804.00
2023-01-13T09:54:09.063Z,2096.00
2023-01-13T09:55:07.992Z,2424.00
2023-01-13T09:56:07.973Z,2872.00
2023-01-13T09:57:07.975Z,3504.00
2023-01-13T09:58:08.791Z,3904.00
2023-01-13T09:59:08.980Z,3856.00
2023-01-13T10:00:07.953Z,3628.00
2023-01-13T10:01:07.971Z,3292.00
2023-01-13T10:02:07.930Z,2840.00
2023-01-13T10:03:07.964Z,2564.00
2023-01-13T10:04:09.185Z,2628.00
2023-01-13T10:05:07.962Z,2552.00
2023-01-13T10:06:07.877Z,2604.00
2023-01-13T10:07:08.090Z,3080.00
2023-01-13T10:08:07.858Z,3636.00
2023-01-13T10:09:07.950Z,3812.00
2023-01-13T10:10:09.376Z,4064.00
2023-01-13T10:11:08.847Z,4260.00
2023-01-13T10:12:07.868Z,4124.00
2023-01-13T10:13:07.836Z,4332.00
2023-01-13T10:14:07.870Z,4464.00
2023-01-13T10:15:07.791Z,4324.00
2023-01-13T10:16:07.887Z,4276.00
2023-01-13T10:17:07.770Z,4392.00
2023-01-13T10:18:07.782Z,4476.00
2023-01-13T10:19:07.757Z,4660.00
2023-01-13T10:20:07.752Z,4556.00
2023-01-13T10:21:07.757Z,4184.00
2023-01-13T10:22:09.330Z,4164.00
2023-01-13T10:23:07.870Z,4232.00
2023-01-13T10:24:07.716Z,3536.00
2023-01-13T10:25:08.742Z,2748.00
2023-01-13T10:26:07.755Z,2076.00
2023-01-13T10:27:07.694Z,1748.00
2023-01-13T10:28:07.661Z,1640.00
2023-01-13T10:29:07.664Z,1572.00
2023-01-13T10:30:07.685Z,1540.00
2023-01-13T10:31:07.663Z,1708.00
2023-01-13T10:32:07.785Z,2232.00
2023-01-13T10:33:07.754Z,3492.00
2023-01-13T10:34:07.607Z,4332.00
2023-01-13T10:35:07.594Z,4888.00
2023-01-13T10:36:07.606Z,4500.00
2023-01-13T10:37:07.588Z,3844.00
2023-01-13T10:38:07.576Z,4224.00
2023-01-13T10:39:07.573Z,4880.00
2023-01-13T10:40:07.567Z,5288.00
2023-01-13T10:41:07.548Z,5352.00
2023-01-13T10:42:07.565Z,4544.00
2023-01-13T10:43:07.508Z,4188.00
2023-01-13T10:44:09.643Z,4120.00
2023-01-13T10:45:07.495Z,7556.00
2023-01-13T10:46:07.575Z,4896.00
2023-01-13T10:47:07.567Z,4612.00
2023-01-13T10:48:07.464Z,5016.00
2023-01-13T10:49:07.488Z,5116.00
2023-01-13T10:50:09.467Z,4940.00
2023-01-13T10:51:08.438Z,4716.00
2023-01-13T10:52:07.467Z,4544.00
2023-01-13T10:53:07.501Z,6616.00
2023-01-13T10:54:07.411Z,5128.00
2023-01-13T10:55:07.396Z,7152.00
2023-01-13T10:56:07.420Z,5772.00
2023-01-13T10:57:07.403Z,5608.00
2023-01-13T10:58:07.375Z,5844.00
2023-01-13T10:59:07.386Z,5800.00
2023-01-13T11:00:07.333Z,5384.00
2023-01-13T11:01:07.368Z,5276.00
2023-01-13T11:02:23.841Z,4944.00
2023-01-13T11:03:09.340Z,4912.00
2023-01-13T11:04:07.328Z,4748.00
2023-01-13T11:05:07.344Z,4256.00
2023-01-13T11:06:07.293Z,3652.00
2023-01-13T11:07:07.345Z,3664.00
2023-01-13T11:08:07.274Z,3488.00
2023-01-13T11:09:07.289Z,3560.00
2023-01-13T11:10:07.232Z,3784.00
2023-01-13T11:11:07.284Z,3888.00
2023-01-13T11:12:07.214Z,4088.00
2023-01-13T11:13:07.215Z,4280.00
2023-01-13T11:14:09.201Z,4220.00
2023-01-13T11:15:08.172Z,4156.00
2023-01-13T11:16:07.213Z,4108.00
2023-01-13T11:17:07.187Z,4180.00
2023-01-13T11:18:07.185Z,4132.00
2023-01-13T11:19:07.163Z,3904.00
2023-01-13T11:20:07.185Z,3216.00
2023-01-13T11:21:07.151Z,3064.00
2023-01-13T11:22:07.137Z,3536.00
2023-01-13T11:23:07.117Z,3552.00
2023-01-13T11:24:07.108Z,3280.00
2023-01-13T11:25:07.149Z,3204.00
2023-01-13T11:26:07.132Z,3380.00
2023-01-13T11:27:07.092Z,3864.00
2023-01-13T11:28:07.104Z,3836.00
2023-01-13T11:29:07.059Z,4008.00
2023-01-13T11:30:07.092Z,4292.00
2023-01-13T11:31:07.117Z,4460.00
2023-01-13T11:32:07.012Z,4604.00
2023-01-13T11:33:07.036Z,4952.00
2023-01-13T11:34:07.045Z,4852.00
2023-01-13T11:35:07.008Z,5212.00
2023-01-13T11:36:07.022Z,5248.00
2023-01-13T11:37:07.032Z,4976.00
2023-01-13T11:38:06.971Z,5148.00
2023-01-13T11:39:06.950Z,4680.00
2023-01-13T11:40:07.011Z,5380.00
2023-01-13T11:41:06.958Z,5700.00
2023-01-13T11:42:06.928Z,5704.00
2023-01-13T11:43:06.963Z,5460.00
2023-01-13T11:44:06.909Z,4984.00
2023-01-13T11:45:06.899Z,4728.00
2023-01-13T11:46:07.023Z,4772.00
2023-01-13T11:47:06.892Z,4820.00
2023-01-13T11:48:06.892Z,5488.00
2023-01-13T11:49:06.963Z,4776.00
2023-01-13T11:50:06.852Z,4624.00
2023-01-13T11:51:06.862Z,4468.00
2023-01-13T11:52:06.931Z,4380.00
2023-01-13T11:53:06.834Z,4116.00
2023-01-13T11:54:06.818Z,3760.00
2023-01-13T11:55:06.865Z,3672.00
2023-01-13T11:56:06.808Z,3684.00
2023-01-13T11:57:06.794Z,3284.00
2023-01-13T11:58:06.835Z,3144.00
2023-01-13T11:59:06.771Z,3336.00
2023-01-13T12:00:06.733Z,3476.00
2023-01-13T12:01:06.759Z,3276.00
2023-01-13T12:02:06.821Z,2996.00
2023-01-13T12:03:06.813Z,3204.00
2023-01-13T12:04:06.716Z,3624.00
2023-01-13T12:05:06.713Z,3532.00
2023-01-13T12:06:06.713Z,3320.00
2023-01-13T12:07:06.692Z,3336.00
2023-01-13T12:08:06.693Z,3408.00
2023-01-13T12:09:06.751Z,3444.00
2023-01-13T12:10:10.971Z,3412.00
2023-01-13T12:11:08.683Z,3528.00
2023-01-13T12:12:07.679Z,3556.00
2023-01-13T12:13:06.702Z,3472.00
2023-01-13T12:14:06.670Z,3416.00
2023-01-13T12:15:06.630Z,3596.00
2023-01-13T12:16:06.677Z,3904.00
2023-01-13T12:17:06.658Z,4276.00
2023-01-13T12:18:06.616Z,4436.00
2023-01-13T12:19:06.596Z,4496.00
2023-01-13T12:20:06.540Z,6092.00
2023-01-13T12:21:06.568Z,5892.00
2023-01-13T12:22:06.534Z,6632.00
2023-01-13T12:23:06.528Z,5388.00
2023-01-13T12:24:07.526Z,5304.00
2023-01-13T12:25:06.505Z,5068.00
2023-01-13T12:26:06.553Z,5040.00
2023-01-13T12:27:06.484Z,4948.00
2023-01-13T12:28:06.471Z,4812.00
2023-01-13T12:29:06.532Z,4816.00
2023-01-13T12:30:06.456Z,4616.00
2023-01-13T12:31:06.461Z,4172.00
2023-01-13T12:32:06.472Z,3672.00
2023-01-13T12:33:06.431Z,3456.00
2023-01-13T12:34:06.429Z,3200.00
2023-01-13T12:35:06.472Z,2984.00
2023-01-13T12:36:06.417Z,2988.00
2023-01-13T12:37:06.410Z,3040.00
2023-01-13T12:38:06.423Z,2956.00
2023-01-13T12:39:06.384Z,2748.00
2023-01-13T12:40:06.396Z,2372.00
2023-01-13T12:41:06.397Z,2308.00
2023-01-13T12:42:06.390Z,2624.00
2023-01-13T12:43:06.333Z,2820.00
2023-01-13T12:44:06.402Z,2908.00
2023-01-13T12:45:06.363Z,2992.00
2023-01-13T12:46:06.335Z,2960.00